<?xml version="1.0" encoding="UTF-8" standalone="no" ?>
<gpx xmlns="http://www.topografix.com/GPX/1/1" xmlns:xsi="http://www.w3.org/2001/XMLSchema-instance" xsi:schemaLocation="http://www.topografix.com/GPX/1/1 http://www.topografix.com/GPX/1/1/gpx.xsd" version="1.1" creator="VisuGPX - https://www.visugpx.com">
  <metadata>
    <name>boucles beaumont</name>
    <desc><![CDATA[boucles beaumont du périgord]]></desc>
  </metadata>
  <trk>
    <name><![CDATA[BBmt60]]></name>
    <trkseg>
      <trkpt lat="44.71515" lon="0.79705">
        <ele>214</ele>
        <time>2009-01-20T10:29:43Z</time>
      </trkpt>
      <trkpt lat="44.71528" lon="0.79725">
        <ele>209</ele>
        <time>2009-01-20T10:33:16Z</time>
      </trkpt>
      <trkpt lat="44.71543" lon="0.7974">
        <ele>209</ele>
        <time>2009-01-20T10:33:20Z</time>
      </trkpt>
      <trkpt lat="44.71553" lon="0.79763">
        <ele>208</ele>
        <time>2009-01-20T10:33:27Z</time>
      </trkpt>
      <trkpt lat="44.7154" lon="0.7979">
        <ele>205</ele>
        <time>2009-01-20T10:33:34Z</time>
      </trkpt>
      <trkpt lat="44.71523" lon="0.79813">
        <ele>204</ele>
        <time>2009-01-20T10:33:38Z</time>
      </trkpt>
      <trkpt lat="44.71505" lon="0.79838">
        <ele>203</ele>
        <time>2009-01-20T10:33:41Z</time>
      </trkpt>
      <trkpt lat="44.71485" lon="0.79863">
        <ele>201</ele>
        <time>2009-01-20T10:33:44Z</time>
      </trkpt>
      <trkpt lat="44.71465" lon="0.7989">
        <ele>200</ele>
        <time>2009-01-20T10:33:47Z</time>
      </trkpt>
      <trkpt lat="44.71448" lon="0.79918">
        <ele>200</ele>
        <time>2009-01-20T10:33:50Z</time>
      </trkpt>
      <trkpt lat="44.7143" lon="0.79938">
        <ele>200</ele>
        <time>2009-01-20T10:33:53Z</time>
      </trkpt>
      <trkpt lat="44.71418" lon="0.79958">
        <ele>199</ele>
        <time>2009-01-20T10:33:57Z</time>
      </trkpt>
      <trkpt lat="44.7142" lon="0.79988">
        <ele>201</ele>
        <time>2009-01-20T10:34:08Z</time>
      </trkpt>
      <trkpt lat="44.71435" lon="0.80008">
        <ele>204</ele>
        <time>2009-01-20T10:34:12Z</time>
      </trkpt>
      <trkpt lat="44.71453" lon="0.80023">
        <ele>205</ele>
        <time>2009-01-20T10:34:16Z</time>
      </trkpt>
      <trkpt lat="44.71468" lon="0.8004">
        <ele>204</ele>
        <time>2009-01-20T10:34:20Z</time>
      </trkpt>
      <trkpt lat="44.71483" lon="0.80055">
        <ele>204</ele>
        <time>2009-01-20T10:34:24Z</time>
      </trkpt>
      <trkpt lat="44.71505" lon="0.80073">
        <ele>203</ele>
        <time>2009-01-20T10:34:28Z</time>
      </trkpt>
      <trkpt lat="44.71523" lon="0.80083">
        <ele>202</ele>
        <time>2009-01-20T10:34:31Z</time>
      </trkpt>
      <trkpt lat="44.71545" lon="0.80095">
        <ele>202</ele>
        <time>2009-01-20T10:34:33Z</time>
      </trkpt>
      <trkpt lat="44.71565" lon="0.80108">
        <ele>201</ele>
        <time>2009-01-20T10:34:37Z</time>
      </trkpt>
      <trkpt lat="44.71585" lon="0.8012">
        <ele>200</ele>
        <time>2009-01-20T10:34:40Z</time>
      </trkpt>
      <trkpt lat="44.71603" lon="0.8013">
        <ele>200</ele>
        <time>2009-01-20T10:34:43Z</time>
      </trkpt>
      <trkpt lat="44.7162" lon="0.8014">
        <ele>198</ele>
        <time>2009-01-20T10:34:47Z</time>
      </trkpt>
      <trkpt lat="44.71633" lon="0.8016">
        <ele>197</ele>
        <time>2009-01-20T10:34:59Z</time>
      </trkpt>
      <trkpt lat="44.71643" lon="0.80183">
        <ele>197</ele>
        <time>2009-01-20T10:35:02Z</time>
      </trkpt>
      <trkpt lat="44.71655" lon="0.80213">
        <ele>197</ele>
        <time>2009-01-20T10:35:05Z</time>
      </trkpt>
      <trkpt lat="44.71665" lon="0.80243">
        <ele>196</ele>
        <time>2009-01-20T10:35:08Z</time>
      </trkpt>
      <trkpt lat="44.71678" lon="0.80275">
        <ele>196</ele>
        <time>2009-01-20T10:35:11Z</time>
      </trkpt>
      <trkpt lat="44.71688" lon="0.80308">
        <ele>195</ele>
        <time>2009-01-20T10:35:14Z</time>
      </trkpt>
      <trkpt lat="44.71695" lon="0.8034">
        <ele>195</ele>
        <time>2009-01-20T10:35:17Z</time>
      </trkpt>
      <trkpt lat="44.71703" lon="0.80373">
        <ele>195</ele>
        <time>2009-01-20T10:35:20Z</time>
      </trkpt>
      <trkpt lat="44.7171" lon="0.80405">
        <ele>196</ele>
        <time>2009-01-20T10:35:23Z</time>
      </trkpt>
      <trkpt lat="44.71715" lon="0.80438">
        <ele>197</ele>
        <time>2009-01-20T10:35:26Z</time>
      </trkpt>
      <trkpt lat="44.71723" lon="0.8047">
        <ele>197</ele>
        <time>2009-01-20T10:35:29Z</time>
      </trkpt>
      <trkpt lat="44.7173" lon="0.805">
        <ele>197</ele>
        <time>2009-01-20T10:35:32Z</time>
      </trkpt>
      <trkpt lat="44.71735" lon="0.8053">
        <ele>197</ele>
        <time>2009-01-20T10:35:35Z</time>
      </trkpt>
      <trkpt lat="44.71743" lon="0.80555">
        <ele>198</ele>
        <time>2009-01-20T10:35:38Z</time>
      </trkpt>
      <trkpt lat="44.7175" lon="0.8058">
        <ele>198</ele>
        <time>2009-01-20T10:35:42Z</time>
      </trkpt>
      <trkpt lat="44.71758" lon="0.80605">
        <ele>197</ele>
        <time>2009-01-20T10:36:01Z</time>
      </trkpt>
      <trkpt lat="44.7177" lon="0.8063">
        <ele>197</ele>
        <time>2009-01-20T10:36:06Z</time>
      </trkpt>
      <trkpt lat="44.7178" lon="0.80658">
        <ele>197</ele>
        <time>2009-01-20T10:36:11Z</time>
      </trkpt>
      <trkpt lat="44.7179" lon="0.80683">
        <ele>195</ele>
        <time>2009-01-20T10:36:15Z</time>
      </trkpt>
      <trkpt lat="44.71803" lon="0.80705">
        <ele>195</ele>
        <time>2009-01-20T10:36:21Z</time>
      </trkpt>
      <trkpt lat="44.71823" lon="0.80713">
        <ele>193</ele>
        <time>2009-01-20T10:36:29Z</time>
      </trkpt>
      <trkpt lat="44.7184" lon="0.80723">
        <ele>191</ele>
        <time>2009-01-20T10:36:32Z</time>
      </trkpt>
      <trkpt lat="44.7186" lon="0.80735">
        <ele>189</ele>
        <time>2009-01-20T10:36:36Z</time>
      </trkpt>
      <trkpt lat="44.71878" lon="0.80748">
        <ele>186</ele>
        <time>2009-01-20T10:36:39Z</time>
      </trkpt>
      <trkpt lat="44.719" lon="0.80765">
        <ele>184</ele>
        <time>2009-01-20T10:36:42Z</time>
      </trkpt>
      <trkpt lat="44.71923" lon="0.80785">
        <ele>181</ele>
        <time>2009-01-20T10:36:45Z</time>
      </trkpt>
      <trkpt lat="44.71938" lon="0.808">
        <ele>179</ele>
        <time>2009-01-20T10:36:47Z</time>
      </trkpt>
      <trkpt lat="44.71953" lon="0.80815">
        <ele>175</ele>
        <time>2009-01-20T10:36:49Z</time>
      </trkpt>
      <trkpt lat="44.71955" lon="0.80833">
        <ele>170</ele>
        <time>2009-01-20T10:39:56Z</time>
      </trkpt>
      <trkpt lat="44.71973" lon="0.8085">
        <ele>167</ele>
        <time>2009-01-20T10:40:06Z</time>
      </trkpt>
      <trkpt lat="44.71985" lon="0.80873">
        <ele>167</ele>
        <time>2009-01-20T10:40:10Z</time>
      </trkpt>
      <trkpt lat="44.71998" lon="0.80898">
        <ele>167</ele>
        <time>2009-01-20T10:40:15Z</time>
      </trkpt>
      <trkpt lat="44.72013" lon="0.80923">
        <ele>167</ele>
        <time>2009-01-20T10:40:20Z</time>
      </trkpt>
      <trkpt lat="44.7203" lon="0.80945">
        <ele>167</ele>
        <time>2009-01-20T10:40:25Z</time>
      </trkpt>
      <trkpt lat="44.72045" lon="0.80965">
        <ele>165</ele>
        <time>2009-01-20T10:40:29Z</time>
      </trkpt>
      <trkpt lat="44.72063" lon="0.80985">
        <ele>164</ele>
        <time>2009-01-20T10:40:33Z</time>
      </trkpt>
      <trkpt lat="44.72078" lon="0.81003">
        <ele>164</ele>
        <time>2009-01-20T10:40:38Z</time>
      </trkpt>
      <trkpt lat="44.72093" lon="0.81018">
        <ele>167</ele>
        <time>2009-01-20T10:41:23Z</time>
      </trkpt>
      <trkpt lat="44.72103" lon="0.8104">
        <ele>163</ele>
        <time>2009-01-20T10:41:46Z</time>
      </trkpt>
      <trkpt lat="44.7211" lon="0.81065">
        <ele>151</ele>
        <time>2009-01-20T10:42:04Z</time>
      </trkpt>
      <trkpt lat="44.72118" lon="0.8109">
        <ele>149</ele>
        <time>2009-01-20T10:42:19Z</time>
      </trkpt>
      <trkpt lat="44.72123" lon="0.81115">
        <ele>144</ele>
        <time>2009-01-20T10:42:37Z</time>
      </trkpt>
      <trkpt lat="44.73064" lon="0.81502">
        <ele>123</ele>
        <time>2009-06-18T16:43:36Z</time>
      </trkpt>
      <trkpt lat="44.734" lon="0.82241">
        <ele>113</ele>
        <time>2009-06-18T16:43:36Z</time>
      </trkpt>
      <trkpt lat="44.73395" lon="0.82184">
        <ele>107</ele>
        <time>2009-06-18T16:43:36Z</time>
      </trkpt>
      <trkpt lat="44.73399" lon="0.82127">
        <ele>105</ele>
        <time>2009-06-18T16:43:36Z</time>
      </trkpt>
      <trkpt lat="44.73403" lon="0.82089">
        <ele>106</ele>
        <time>2009-06-18T16:43:36Z</time>
      </trkpt>
      <trkpt lat="44.73524" lon="0.8208">
        <ele>119</ele>
        <time>2009-06-18T16:43:36Z</time>
      </trkpt>
      <trkpt lat="44.73587" lon="0.82059">
        <ele>121</ele>
        <time>2009-06-18T16:43:36Z</time>
      </trkpt>
      <trkpt lat="44.73618" lon="0.82039">
        <ele>123</ele>
        <time>2009-01-20T10:42:52Z</time>
      </trkpt>
    </trkseg>
  </trk>
</gpx>